Colorado Springs, CO (80944)

3:05 PM MDT on September 19, 2014 (GMT -0600)
Old North End | Change Station
CLOSE
Current Station
Personal Weather Station
Location: Colorado Springs, CO
Elevation: 6086 ft
Nearby Weather Stations

Elev 6086 ft 38.85 °N, 104.82 °W | Updated 2 seconds ago

Clear
Clear
90.7 °F
Feels Like 87 °F
N
0.0
Wind Variable Wind from SSW
Gusts 0.0 mph

Today
High -- | Low -- °F
--% Chance of Precip.
Yesterday
High -- | Low -- °F
Precip. -- in
6:44 AM 7:01 PM
Waning Crescent, 17% visible
Pressure 29.78 in
Visibility 10.0 miles
Clouds Few 12000 ft
Few 15000 ft
Heat Index 87 °F
Dew Point 33 °F
Humidity 13%
Rainfall 0.00 in
Snow Depth 186 in , 87 in , 0 in
UV 6 out of 12
Pollen 5.70 out of 12
Ozone Good
PM2.5 Good
Flu Activity Not available.
METAR KCOS 192054Z 07010G19KT 10SM FEW120 FEW150 31/02 A3005 RMK AO2 SLP082 T03060017 56009

More Conditions Fewer Conditions

Pressure 29.78 in
Visibility 10.0 miles
Clouds Few 12000 ft
Few 15000 ft
Heat Index 87 °F
Dew Point 33 °F
Humidity 13%
Rainfall 0.00 in
Snow Depth 186 in , 87 in , 0 in
UV 6 out of 12
Pollen 5.70 out of 12
Ozone Good
PM2.5 Good
Flu Activity Not available.
METAR KCOS 192054Z 07010G19KT 10SM FEW120 FEW150 31/02 A3005 RMK AO2 SLP082 T03060017 56009

More Conditions Fewer Conditions

10-Day Weather Forecast

Almanac

Astronomy

Sep. 19, 2014 Rise Set
Actual Time 6:44 AM MDT 7:01 PM MDT
Civil Twilight 6:17 AM MDT 7:27 PM MDT
Nautical Twilight 5:46 AM MDT 7:58 PM MDT
Astronomical Twilight 5:14 AM MDT 8:30 PM MDT
Moon 2:33 AM MDT 4:29 PM MDT
Length of Visible Light 13h 09m
Length of Day
12h 16m
Tomorrow will be 2m 30s shorter.
Waning Crescent, 17% of the Moon is Illuminated
Today
Waning Crescent
Sep 24
New
Oct 1
First Quarter
Oct 8
Full
Oct 15
Last Quarter

Today's Extremes

State Highs State Lows

Community

WunderPhotos

Upload Photos

1,754,699 photos uploaded!

WunderBlogs® & News

By Dr. Jeff Masters
Director of Meteorology, Weather Underground
By Kari Strenfel
Meteorologist, Weather Underground
By Christopher C. Burt
Weather Historian, Weather Underground
September 19, 2014
September 19, 2014
September 19, 2014

Nearby

Air Quality

  Air Quality AQ Index Pollutant
Yesterday Good
OZONE
Yesterday Good
PM2.5
Current Good
OZONE
Current Good
PM2.5
Friday Good
PM2.5
Friday Good
OZONE
Saturday Good
PM2.5
Saturday Good
OZONE
Sunday Good
PM2.5
Sunday Good
OZONE
Monday Good
PM2.5
Monday Good
OZONE

Snow Depth

Station Depth Elevation
Independence Pass 186 in 10600 ft
Vail Mountain 87 in 10300 ft
Slumgullion 0 in 11440 ft
Rough And Tumble 0 in 10360 ft
Rawah 17 in 9020 ft

Earthquake Activity

City Distance Mag. Time & Date
No recent earthquake activity has been reported nearby.
Minimum magnitude displayed is 2.5.

Coastal Water Temperatures

Place Temperature
No Stations Reporting

Nearby Weather Stations